Mare Siculum — ICOW — position and weather

sailwx.info

Track history (hours):
 
Tides and Currents Weather Stations Pressure Air Temp Water Temp Dewpoint Dewpoint Depression Visibility Wind Speed Wind Dir Waves Ship Positions

Mare Siculum

Last reported at 2018-Jul-19 23:30 UTC. Time now 2018-Jul-21 05:49 UTC.
Position N 24°43' W 018°23'.

Length 274 m; draft 8.8 m.

Type: Ship. MMSI: 247301100.

Date/timePositionNaut miles runAvg speedWind from/ knotsBaromVisibWave heightAir tempDewpointWater temp
2018-Jul-19 23:30N 24°43' W 018°23'24710.3
2018-Jul-18 23:28N 27°43' W 015°14'511.5
2018-Jul-18 23:00N 27°49' W 015°14'611.4
2018-Jul-18 22:30N 27°54' W 015°13'610.9
2018-Jul-18 22:00N 27°60' W 015°15'510.3
2018-Jul-18 21:30N 28°04' W 015°18'5 9.4
2018-Jul-18 21:00N 28°07' W 015°23'2 3.5
2018-Jul-18 20:24N 28°07' W 015°25'0 0.1
2018-Jul-18 19:54N 28°07' W 015°25'0 0.0
2018-Jul-18 19:24N 28°07' W 015°25'0 0.0
2018-Jul-18 18:54N 28°07' W 015°25'0 0.1
2018-Jul-18 18:27N 28°07' W 015°25'0 0.1
2018-Jul-18 17:57N 28°07' W 015°25'0 0.0
2018-Jul-18 17:27N 28°07' W 015°25'0 0.1
2018-Jul-18 16:57N 28°07' W 015°25'0 0.1
2018-Jul-18 16:27N 28°07' W 015°25'0 0.1
2018-Jul-18 16:00N 28°07' W 015°25'0 0.2
2018-Jul-18 15:30N 28°07' W 015°25'0 0.2
2018-Jul-18 15:00N 28°07' W 015°25'0 0.0
2018-Jul-18 14:30N 28°07' W 015°25'0 0.0
2018-Jul-18 13:30N 28°07' W 015°25'0 0.1
2018-Jul-18 12:48N 28°07' W 015°25'0 0.1
2018-Jul-18 12:30N 28°07' W 015°25'0 0.1
2018-Jul-18 11:45N 28°07' W 015°25'0 0.2
2018-Jul-18 11:30N 28°07' W 015°25'0 0.2
2018-Jul-18 10:30N 28°07' W 015°25'2 3.6
2018-Jul-18 09:59N 28°09' W 015°23'1 1.0
2018-Jul-18 09:24N 28°08' W 015°24'0 0.0
2018-Jul-18 08:54N 28°08' W 015°24'0 0.0
2018-Jul-18 08:24N 28°08' W 015°24'0 0.0
2018-Jul-18 07:57N 28°08' W 015°24'0 0.0
2018-Jul-18 07:27N 28°08' W 015°24'0 0.0
2018-Jul-18 06:57N 28°08' W 015°24'0 0.0
2018-Jul-18 06:27N 28°08' W 015°24'0 0.0
2018-Jul-18 06:00N 28°08' W 015°24'0 0.1
2018-Jul-18 05:27N 28°08' W 015°24'0 0.0
2018-Jul-18 05:00N 28°08' W 015°24'0 0.1
2018-Jul-18 04:30N 28°08' W 015°24'0 0.1
2018-Jul-18 04:00N 28°08' W 015°24'0 0.1
2018-Jul-18 03:30N 28°08' W 015°24'0 0.0
2018-Jul-18 03:00N 28°08' W 015°24'0 0.0
2018-Jul-18 02:30N 28°08' W 015°24'0 0.0
2018-Jul-18 02:00N 28°08' W 015°24'0 0.0
2018-Jul-18 01:30N 28°08' W 015°24'0 0.1
2018-Jul-18 01:00N 28°08' W 015°24'0 0.0
2018-Jul-18 00:21N 28°08' W 015°24'0 0.0
2018-Jul-18 00:00N 28°08' W 015°24'0 0.0
2018-Jul-17 23:21N 28°08' W 015°24'0 0.1
2018-Jul-17 23:00N 28°08' W 015°24'0 0.0
2018-Jul-17 22:30N 28°08' W 015°24'0 0.1
2018-Jul-17 21:51N 28°08' W 015°24'0 0.0
2018-Jul-17 21:24N 28°08' W 015°24'0 0.1
2018-Jul-17 20:54N 28°08' W 015°24'0 0.0
2018-Jul-17 20:24N 28°08' W 015°24'0 0.0
2018-Jul-17 19:54N 28°08' W 015°24'0 0.0
2018-Jul-17 19:24N 28°08' W 015°24'0 0.0
2018-Jul-17 18:54N 28°08' W 015°24'0 0.0
2018-Jul-17 18:25N 28°08' W 015°24'0 0.1
2018-Jul-17 18:00N 28°08' W 015°24'0 0.0
2018-Jul-17 17:30N 28°08' W 015°24'0 0.0
2018-Jul-17 17:00N 28°08' W 015°24'0 0.1
2018-Jul-17 16:29N 28°08' W 015°24'0 0.0
2018-Jul-17 15:57N 28°08' W 015°24'0 0.0
2018-Jul-17 15:30N 28°08' W 015°24'0 0.0
2018-Jul-17 15:00N 28°08' W 015°24'0 0.0
2018-Jul-17 14:30N 28°08' W 015°24'0 0.0
2018-Jul-17 14:00N 28°08' W 015°24'0 0.0
2018-Jul-17 13:30N 28°08' W 015°24'0 0.0
2018-Jul-17 13:00N 28°08' W 015°24'0 0.1
2018-Jul-17 12:30N 28°08' W 015°24'0 0.1
2018-Jul-17 11:58N 28°08' W 015°24'0 0.4
2018-Jul-17 11:30N 28°09' W 015°24'1 2.1
2018-Jul-17 11:00N 28°08' W 015°23'2 4.0
2018-Jul-17 10:30N 28°09' W 015°21'4 8.1
2018-Jul-17 10:00N 28°13' W 015°18'4 8.7
2018-Jul-17 09:30N 28°17' W 015°17'4 8.7
2018-Jul-17 09:00N 28°21' W 015°16'510.3
2018-Jul-17 08:30N 28°26' W 015°14'611.3
2018-Jul-17 08:01N 28°31' W 015°12'714.2
2018-Jul-17 07:30N 28°38' W 015°10'612.0
2018-Jul-17 07:00N 28°44' W 015°08'612.3
2018-Jul-17 06:30N 28°50' W 015°06'511.1
2018-Jul-17 06:00N 28°55' W 015°04'510.9
2018-Jul-17 05:30N 29°00' W 015°03'612.1
2018-Jul-17 05:00N 29°06' W 015°01'611.9
2018-Jul-17 04:30N 29°12' W 014°59'612.0
2018-Jul-17 04:00N 29°18' W 014°57'612.0
2018-Jul-17 03:30N 29°23' W 014°55'611.8
2018-Jul-17 03:00N 29°29' W 014°53'612.3
2018-Jul-17 02:30N 29°35' W 014°51'612.5
2018-Jul-17 02:00N 29°41' W 014°49'612.6
2018-Jul-17 01:30N 29°47' W 014°47'612.5
2018-Jul-17 01:00N 29°53' W 014°45'612.1
2018-Jul-17 00:29N 29°59' W 014°43'1211.9
2018-Jul-16 23:30N 30°10' W 014°40'611.7
2018-Jul-16 23:00N 30°16' W 014°38'611.7
2018-Jul-16 22:30N 30°22' W 014°36'  
2018-Jul-12 19:20N 48°42' W 005°58'514.4
2018-Jul-12 19:00N 48°46' W 005°54'714.1
2018-Jul-12 18:30N 48°52' W 005°49'612.9
2018-Jul-12 18:00N 48°56' W 005°42'612.6
2018-Jul-12 17:30N 48°60' W 005°33'612.1
2018-Jul-12 17:00N 49°03' W 005°26'611.8
2018-Jul-12 16:30N 49°06' W 005°18'611.5
2018-Jul-12 16:00N 49°09' W 005°10'611.3
2018-Jul-12 15:29N 49°12' W 005°02'5212.8
2018-Jul-12 11:26N 49°38' W 003°54'1014.7
2018-Jul-12 10:46N 49°43' W 003°40'414.5
2018-Jul-12 10:30N 49°45' W 003°35'714.3
2018-Jul-12 10:00N 49°48' W 003°26'713.7
2018-Jul-12 09:30N 49°52' W 003°17'612.8
2018-Jul-12 09:00N 49°55' W 003°08'612.1
2018-Jul-12 08:31N 49°58' W 002°60'611.5
2018-Jul-12 08:00N 49°60' W 002°51'511.0
2018-Jul-12 07:31N 50°01' W 002°43'510.5
2018-Jul-12 07:00N 50°03' W 002°35'610.4
2018-Jul-12 06:28N 50°04' W 002°27'710.2
2018-Jul-12 05:45N 50°06' W 002°16'4112.5
2018-Jul-12 02:31N 50°18' W 001°15'015.1
2018-Jul-12 02:30N 50°18' W 001°15'815.7
2018-Jul-12 02:00N 50°19' W 001°03'816.0
2018-Jul-12 01:30N 50°21' W 000°51'1115.6
2018-Jul-12 00:47N 50°25' W 000°34'815.1
2018-Jul-12 00:13N 50°27' W 000°21'414.6
2018-Jul-11 23:57N 50°28' W 000°15'614.2
2018-Jul-11 23:30N 50°30' W 000°06'713.8
2018-Jul-11 23:00N 50°32' E 000°04'713.2
2018-Jul-11 22:27N 50°34' E 000°16'612.8
2018-Jul-11 21:59N 50°35' E 000°25'612.2
2018-Jul-11 21:30N 50°37' E 000°34'611.8
2018-Jul-11 21:00N 50°40' E 000°41'611.8
2018-Jul-11 20:31N 50°44' E 000°49'612.1
2018-Jul-11 20:01N 50°47' E 000°56'712.6
2018-Jul-11 19:29N 50°52' E 001°04'612.8
2018-Jul-11 19:00N 50°56' E 001°12'612.8
2018-Jul-11 18:30N 50°60' E 001°19'714.1
2018-Jul-11 18:01N 51°04' E 001°28'714.6
2018-Jul-11 17:31N 51°08' E 001°37'815.9
2018-Jul-11 17:01N 51°14' E 001°46'815.4
2018-Jul-11 16:31N 51°21' E 001°53'713.9
2018-Jul-11 16:00N 51°27' E 001°59'713.2
2018-Jul-11 15:30N 51°32' E 002°06'612.7
2018-Jul-11 15:01N 51°36' E 002°12'612.4
2018-Jul-11 14:31N 51°41' E 002°19'611.9
2018-Jul-11 14:00N 51°46' E 002°24'611.7
2018-Jul-11 13:31N 51°51' E 002°30'611.3
2018-Jul-11 13:00N 51°55' E 002°36'611.3
2018-Jul-11 12:31N 52°01' E 002°37'611.3
2018-Jul-11 12:00N 52°06' E 002°37'511.0
2018-Jul-11 11:31N 52°12' E 002°39'612.0
2018-Jul-11 11:01N 52°17' E 002°44'612.5
2018-Jul-11 10:30N 52°22' E 002°48'613.0
2018-Jul-11 10:01N 52°28' E 002°53'713.4
2018-Jul-11 09:30N 52°34' E 002°58'713.8
2018-Jul-11 09:00N 52°41' E 003°03'714.0
2018-Jul-11 08:30N 52°47' E 003°08'714.1
2018-Jul-11 08:00N 52°53' E 003°14'714.1
2018-Jul-11 07:30N 52°60' E 003°18'714.3
2018-Jul-11 07:00N 53°07' E 003°22'714.1
2018-Jul-11 06:30N 53°13' E 003°26'713.9
2018-Jul-11 06:00N 53°20' E 003°29'713.3
2018-Jul-11 05:29N 53°26' E 003°33'1812.7
2018-Jul-11 04:02N 53°44' E 003°42'112.6
2018-Jul-11 04:00N 53°44' E 003°42'612.5
2018-Jul-11 03:30N 53°48' E 003°51'912.6
2018-Jul-11 02:48N 53°53' E 004°03'712.8
2018-Jul-11 02:16N 53°57' E 004°12'412.9
2018-Jul-11 01:59N 53°59' E 004°17'2513.1
2018-Jul-11 00:06N 54°05' E 004°58'2613.6
2018-Jul-10 22:13N 54°08' E 005°41'613.3
2018-Jul-10 21:47N 54°09' E 005°51'6011.4
2018-Jul-10 16:33N 54°05' E 007°33'112.1
2018-Jul-10 16:29N 54°04' E 007°32'  
Track history (hours):
 
Tides and Currents Weather Stations Pressure Air Temp Water Temp Dewpoint Dewpoint Depression Visibility Wind Speed Wind Dir Waves Ship Positions

Mare Siculum

Last reported at 2018-Jul-19 23:30 UTC. Time now 2018-Jul-21 05:49 UTC.
Position N 24°43' W 018°23'.

Length 274 m; draft 8.8 m.

Type: Ship. MMSI: 247301100.

Date/timePositionNaut miles runAvg speedWind from/ knotsBaromVisibWave heightAir tempDewpointWater temp
2018-Jul-19 23:30N 24°43' W 018°23'24710.3
2018-Jul-18 23:28N 27°43' W 015°14'511.5
2018-Jul-18 23:00N 27°49' W 015°14'611.4
2018-Jul-18 22:30N 27°54' W 015°13'610.9
2018-Jul-18 22:00N 27°60' W 015°15'510.3
2018-Jul-18 21:30N 28°04' W 015°18'5 9.4
2018-Jul-18 21:00N 28°07' W 015°23'2 3.5
2018-Jul-18 20:24N 28°07' W 015°25'0 0.1
2018-Jul-18 19:54N 28°07' W 015°25'0 0.0
2018-Jul-18 19:24N 28°07' W 015°25'0 0.0
2018-Jul-18 18:54N 28°07' W 015°25'0 0.1
2018-Jul-18 18:27N 28°07' W 015°25'0 0.1
2018-Jul-18 17:57N 28°07' W 015°25'0 0.0
2018-Jul-18 17:27N 28°07' W 015°25'0 0.1
2018-Jul-18 16:57N 28°07' W 015°25'0 0.1
2018-Jul-18 16:27N 28°07' W 015°25'0 0.1
2018-Jul-18 16:00N 28°07' W 015°25'0 0.2
2018-Jul-18 15:30N 28°07' W 015°25'0 0.2
2018-Jul-18 15:00N 28°07' W 015°25'0 0.0
2018-Jul-18 14:30N 28°07' W 015°25'0 0.0
2018-Jul-18 13:30N 28°07' W 015°25'0 0.1
2018-Jul-18 12:48N 28°07' W 015°25'0 0.1
2018-Jul-18 12:30N 28°07' W 015°25'0 0.1
2018-Jul-18 11:45N 28°07' W 015°25'0 0.2
2018-Jul-18 11:30N 28°07' W 015°25'0 0.2
2018-Jul-18 10:30N 28°07' W 015°25'2 3.6
2018-Jul-18 09:59N 28°09' W 015°23'1 1.0
2018-Jul-18 09:24N 28°08' W 015°24'0 0.0
2018-Jul-18 08:54N 28°08' W 015°24'0 0.0
2018-Jul-18 08:24N 28°08' W 015°24'0 0.0
2018-Jul-18 07:57N 28°08' W 015°24'0 0.0
2018-Jul-18 07:27N 28°08' W 015°24'0 0.0
2018-Jul-18 06:57N 28°08' W 015°24'0 0.0
2018-Jul-18 06:27N 28°08' W 015°24'0 0.0
2018-Jul-18 06:00N 28°08' W 015°24'0 0.1
2018-Jul-18 05:27N 28°08' W 015°24'0 0.0
2018-Jul-18 05:00N 28°08' W 015°24'0 0.1
2018-Jul-18 04:30N 28°08' W 015°24'0 0.1
2018-Jul-18 04:00N 28°08' W 015°24'0 0.1
2018-Jul-18 03:30N 28°08' W 015°24'0 0.0
2018-Jul-18 03:00N 28°08' W 015°24'0 0.0
2018-Jul-18 02:30N 28°08' W 015°24'0 0.0
2018-Jul-18 02:00N 28°08' W 015°24'0 0.0
2018-Jul-18 01:30N 28°08' W 015°24'0 0.1
2018-Jul-18 01:00N 28°08' W 015°24'0 0.0
2018-Jul-18 00:21N 28°08' W 015°24'0 0.0
2018-Jul-18 00:00N 28°08' W 015°24'0 0.0
2018-Jul-17 23:21N 28°08' W 015°24'0 0.1
2018-Jul-17 23:00N 28°08' W 015°24'0 0.0
2018-Jul-17 22:30N 28°08' W 015°24'0 0.1
2018-Jul-17 21:51N 28°08' W 015°24'0 0.0
2018-Jul-17 21:24N 28°08' W 015°24'0 0.1
2018-Jul-17 20:54N 28°08' W 015°24'0 0.0
2018-Jul-17 20:24N 28°08' W 015°24'0 0.0
2018-Jul-17 19:54N 28°08' W 015°24'0 0.0
2018-Jul-17 19:24N 28°08' W 015°24'0 0.0
2018-Jul-17 18:54N 28°08' W 015°24'0 0.0
2018-Jul-17 18:25N 28°08' W 015°24'0 0.1
2018-Jul-17 18:00N 28°08' W 015°24'0 0.0
2018-Jul-17 17:30N 28°08' W 015°24'0 0.0
2018-Jul-17 17:00N 28°08' W 015°24'0 0.1
2018-Jul-17 16:29N 28°08' W 015°24'0 0.0
2018-Jul-17 15:57N 28°08' W 015°24'0 0.0
2018-Jul-17 15:30N 28°08' W 015°24'0 0.0
2018-Jul-17 15:00N 28°08' W 015°24'0 0.0
2018-Jul-17 14:30N 28°08' W 015°24'0 0.0
2018-Jul-17 14:00N 28°08' W 015°24'0 0.0
2018-Jul-17 13:30N 28°08' W 015°24'0 0.0
2018-Jul-17 13:00N 28°08' W 015°24'0 0.1
2018-Jul-17 12:30N 28°08' W 015°24'0 0.1
2018-Jul-17 11:58N 28°08' W 015°24'0 0.4
2018-Jul-17 11:30N 28°09' W 015°24'1 2.1
2018-Jul-17 11:00N 28°08' W 015°23'2 4.0
2018-Jul-17 10:30N 28°09' W 015°21'4 8.1
2018-Jul-17 10:00N 28°13' W 015°18'4 8.7
2018-Jul-17 09:30N 28°17' W 015°17'4 8.7
2018-Jul-17 09:00N 28°21' W 015°16'510.3
2018-Jul-17 08:30N 28°26' W 015°14'611.3
2018-Jul-17 08:01N 28°31' W 015°12'714.2
2018-Jul-17 07:30N 28°38' W 015°10'612.0
2018-Jul-17 07:00N 28°44' W 015°08'612.3
2018-Jul-17 06:30N 28°50' W 015°06'511.1
2018-Jul-17 06:00N 28°55' W 015°04'510.9
2018-Jul-17 05:30N 29°00' W 015°03'612.1
2018-Jul-17 05:00N 29°06' W 015°01'611.9
2018-Jul-17 04:30N 29°12' W 014°59'612.0
2018-Jul-17 04:00N 29°18' W 014°57'612.0
2018-Jul-17 03:30N 29°23' W 014°55'611.8
2018-Jul-17 03:00N 29°29' W 014°53'612.3
2018-Jul-17 02:30N 29°35' W 014°51'612.5
2018-Jul-17 02:00N 29°41' W 014°49'612.6
2018-Jul-17 01:30N 29°47' W 014°47'612.5
2018-Jul-17 01:00N 29°53' W 014°45'612.1
2018-Jul-17 00:29N 29°59' W 014°43'1211.9
2018-Jul-16 23:30N 30°10' W 014°40'611.7
2018-Jul-16 23:00N 30°16' W 014°38'611.7
2018-Jul-16 22:30N 30°22' W 014°36'  
2018-Jul-12 19:20N 48°42' W 005°58'514.4
2018-Jul-12 19:00N 48°46' W 005°54'714.1
2018-Jul-12 18:30N 48°52' W 005°49'612.9
2018-Jul-12 18:00N 48°56' W 005°42'612.6
2018-Jul-12 17:30N 48°60' W 005°33'612.1
2018-Jul-12 17:00N 49°03' W 005°26'611.8
2018-Jul-12 16:30N 49°06' W 005°18'611.5
2018-Jul-12 16:00N 49°09' W 005°10'611.3
2018-Jul-12 15:29N 49°12' W 005°02'5212.8
2018-Jul-12 11:26N 49°38' W 003°54'1014.7
2018-Jul-12 10:46N 49°43' W 003°40'414.5
2018-Jul-12 10:30N 49°45' W 003°35'714.3
2018-Jul-12 10:00N 49°48' W 003°26'713.7
2018-Jul-12 09:30N 49°52' W 003°17'612.8
2018-Jul-12 09:00N 49°55' W 003°08'612.1
2018-Jul-12 08:31N 49°58' W 002°60'611.5
2018-Jul-12 08:00N 49°60' W 002°51'511.0
2018-Jul-12 07:31N 50°01' W 002°43'510.5
2018-Jul-12 07:00N 50°03' W 002°35'610.4
2018-Jul-12 06:28N 50°04' W 002°27'710.2
2018-Jul-12 05:45N 50°06' W 002°16'4112.5
2018-Jul-12 02:31N 50°18' W 001°15'015.1
2018-Jul-12 02:30N 50°18' W 001°15'815.7
2018-Jul-12 02:00N 50°19' W 001°03'816.0
2018-Jul-12 01:30N 50°21' W 000°51'1115.6
2018-Jul-12 00:47N 50°25' W 000°34'815.1
2018-Jul-12 00:13N 50°27' W 000°21'414.6
2018-Jul-11 23:57N 50°28' W 000°15'614.2
2018-Jul-11 23:30N 50°30' W 000°06'713.8
2018-Jul-11 23:00N 50°32' E 000°04'713.2
2018-Jul-11 22:27N 50°34' E 000°16'612.8
2018-Jul-11 21:59N 50°35' E 000°25'612.2
2018-Jul-11 21:30N 50°37' E 000°34'611.8
2018-Jul-11 21:00N 50°40' E 000°41'611.8
2018-Jul-11 20:31N 50°44' E 000°49'612.1
2018-Jul-11 20:01N 50°47' E 000°56'712.6
2018-Jul-11 19:29N 50°52' E 001°04'612.8
2018-Jul-11 19:00N 50°56' E 001°12'612.8
2018-Jul-11 18:30N 50°60' E 001°19'714.1
2018-Jul-11 18:01N 51°04' E 001°28'714.6
2018-Jul-11 17:31N 51°08' E 001°37'815.9
2018-Jul-11 17:01N 51°14' E 001°46'815.4
2018-Jul-11 16:31N 51°21' E 001°53'713.9
2018-Jul-11 16:00N 51°27' E 001°59'713.2
2018-Jul-11 15:30N 51°32' E 002°06'612.7
2018-Jul-11 15:01N 51°36' E 002°12'612.4
2018-Jul-11 14:31N 51°41' E 002°19'611.9
2018-Jul-11 14:00N 51°46' E 002°24'611.7
2018-Jul-11 13:31N 51°51' E 002°30'611.3
2018-Jul-11 13:00N 51°55' E 002°36'611.3
2018-Jul-11 12:31N 52°01' E 002°37'611.3
2018-Jul-11 12:00N 52°06' E 002°37'511.0
2018-Jul-11 11:31N 52°12' E 002°39'612.0
2018-Jul-11 11:01N 52°17' E 002°44'612.5
2018-Jul-11 10:30N 52°22' E 002°48'613.0
2018-Jul-11 10:01N 52°28' E 002°53'713.4
2018-Jul-11 09:30N 52°34' E 002°58'713.8
2018-Jul-11 09:00N 52°41' E 003°03'714.0
2018-Jul-11 08:30N 52°47' E 003°08'714.1
2018-Jul-11 08:00N 52°53' E 003°14'714.1
2018-Jul-11 07:30N 52°60' E 003°18'714.3
2018-Jul-11 07:00N 53°07' E 003°22'714.1
2018-Jul-11 06:30N 53°13' E 003°26'713.9
2018-Jul-11 06:00N 53°20' E 003°29'713.3
2018-Jul-11 05:29N 53°26' E 003°33'1812.7
2018-Jul-11 04:02N 53°44' E 003°42'112.6
2018-Jul-11 04:00N 53°44' E 003°42'612.5
2018-Jul-11 03:30N 53°48' E 003°51'912.6
2018-Jul-11 02:48N 53°53' E 004°03'712.8
2018-Jul-11 02:16N 53°57' E 004°12'412.9
2018-Jul-11 01:59N 53°59' E 004°17'2513.1
2018-Jul-11 00:06N 54°05' E 004°58'2613.6
2018-Jul-10 22:13N 54°08' E 005°41'613.3
2018-Jul-10 21:47N 54°09' E 005°51'6011.4
2018-Jul-10 16:33N 54°05' E 007°33'112.1
2018-Jul-10 16:29N 54°04' E 007°32'  

Dump ship's entire track history